Time;durP1;ratioP1;P1;durP2;ratioP2;P2;SDS_P1;SDS_P2;PMS_P1;PMS_P2;Temp;Humidity;BMP_temperature;BMP_pressure;BME280_temperature;BME280_humidity;BME280_pressure;Samples;Min_cycle;Max_cycle;Signal;HPM_P1;HPM_P2
2022/04/16 00:01:43;;;;;;;2.60;1.65;;;11.90;89.80;;;11.55;99.27;101584.56;5028447;28;20597;-77
2022/04/16 00:04:10;;;;;;;2.00;1.70;;;11.80;89.80;;;11.38;100.00;101578.56;5044252;28;20059;-77
2022/04/16 00:06:38;;;;;;;2.28;1.85;;;11.80;90.10;;;11.32;100.00;101583.00;5028664;28;20053;-77
2022/04/16 00:09:05;;;;;;;1.50;1.40;;;11.70;90.50;;;11.16;100.00;101579.59;5010717;28;20540;-74
2022/04/16 00:11:33;;;;;;;2.10;1.88;;;11.50;90.80;;;11.17;100.00;101577.84;5029573;28;20046;-77
2022/04/16 00:14:00;;;;;;;3.05;1.80;;;11.50;91.30;;;11.06;100.00;101578.78;5011480;28;20033;-78
2022/04/16 00:16:30;;;;;;;1.92;1.77;;;11.40;91.20;;;11.06;100.00;101577.88;5029029;28;20041;-79
2022/04/16 00:18:57;;;;;;;1.70;1.55;;;11.40;91.40;;;10.96;100.00;101576.22;5013537;28;20099;-79
2022/04/16 00:21:28;;;;;;;1.92;1.63;;;11.30;91.50;;;10.91;100.00;101582.38;5014970;28;20514;-77
2022/04/16 00:23:55;;;;;;;1.73;1.63;;;11.30;91.60;;;10.91;100.00;101586.78;5014421;28;20056;-77
2022/04/16 00:26:22;;;;;;;2.20;1.92;;;11.30;91.90;;;10.84;100.00;101592.94;5031050;28;20041;-77
2022/04/16 00:29:08;;;;;;;2.03;1.80;;;11.50;92.20;;;10.90;100.00;101588.53;5027616;28;20060;-78
2022/04/16 00:31:36;;;;;;;2.70;2.00;;;11.20;92.50;;;10.56;100.00;101588.69;5030316;28;20048;-76
2022/04/16 00:34:05;;;;;;;1.85;1.65;;;12.00;93.40;;;10.49;100.00;101595.75;5027627;28;20052;-76
2022/04/16 00:36:32;;;;;;;1.75;1.63;;;11.10;93.50;;;10.58;100.00;101593.97;5029385;28;20152;-76
2022/04/16 00:38:59;;;;;;;2.28;1.90;;;10.90;93.50;;;10.56;100.00;101593.97;5028331;28;20073;-76
2022/04/16 00:41:26;;;;;;;2.42;2.00;;;10.80;93.60;;;10.52;100.00;101593.97;5011455;28;20066;-77
2022/04/16 00:43:54;;;;;;;1.90;1.70;;;10.80;93.60;;;10.48;100.00;101593.13;5027821;28;20141;-77
2022/04/16 00:46:21;;;;;;;2.25;1.90;;;11.90;93.90;;;10.45;100.00;101594.00;5011579;28;20042;-77
2022/04/16 00:48:49;;;;;;;3.30;2.10;;;10.70;94.10;;;10.66;100.00;101596.56;5028602;28;20124;-78
2022/04/16 00:51:16;;;;;;;3.80;2.88;;;10.80;94.30;;;10.58;100.00;101592.19;5011837;28;20072;-77
2022/04/16 00:53:49;;;;;;;3.78;2.40;;;10.80;94.40;;;10.47;100.00;101589.59;5028095;28;20045;-77
2022/04/16 00:56:16;;;;;;;3.53;2.78;;;10.80;94.50;;;10.39;100.00;101585.22;5028551;28;20042;-76
2022/04/16 00:58:43;;;;;;;4.20;2.33;;;10.70;94.70;;;10.24;100.00;101583.53;5027870;28;20694;-77
2022/04/16 01:01:10;;;;;;;3.85;2.85;;;10.70;94.90;;;10.28;100.00;101580.00;5027431;28;20436;-77
2022/04/16 01:03:42;;;;;;;3.17;2.47;;;10.60;94.60;;;10.29;100.00;101590.50;5011023;28;20037;-76
2022/04/16 01:06:15;;;;;;;3.75;2.30;;;10.60;94.80;;;10.19;100.00;101592.28;5027238;28;20049;-76
2022/04/16 01:08:45;;;;;;;2.70;2.45;;;10.50;95.00;;;10.18;100.00;101587.91;5027507;28;20038;-76
2022/04/16 01:11:14;;;;;;;3.45;2.42;;;10.50;95.10;;;10.14;100.00;101587.91;5027203;28;20612;-76
2022/04/16 01:13:48;;;;;;;4.57;2.70;;;10.50;95.40;;;10.07;100.00;101587.94;5027389;28;20041;-76
2022/04/16 01:16:15;;;;;;;4.03;3.03;;;10.40;95.10;;;10.05;100.00;101591.44;5028109;28;20045;-76
2022/04/16 01:18:46;;;;;;;3.22;2.55;;;10.40;95.20;;;9.95;100.00;101595.84;5028593;28;20084;-76
2022/04/16 01:21:18;;;;;;;3.67;2.10;;;10.30;95.10;;;9.92;100.00;101595.88;5027195;28;20045;-78
2022/04/16 01:23:48;;;;;;;2.55;2.13;;;10.20;95.10;;;9.81;100.00;101593.25;5026951;28;20590;-77
2022/04/16 01:26:15;;;;;;;2.78;2.33;;;10.20;95.20;;;9.70;100.00;101595.91;5028841;28;20045;-78
2022/04/16 01:28:43;;;;;;;3.05;2.30;;;10.10;95.30;;;9.51;100.00;101595.88;5028567;28;20049;-77
2022/04/16 01:31:13;;;;;;;4.30;2.83;;;10.00;95.50;;;9.67;100.00;101593.25;5043835;28;20057;-77
2022/04/16 01:33:40;;;;;;;;;;;9.90;95.60;;;9.62;100.00;101601.16;5027676;28;20051;-77
2022/04/16 01:36:07;;;;;;;2.90;2.53;;;9.90;95.50;;;9.59;100.00;101601.13;5026711;28;19935;-77
2022/04/16 01:38:34;;;;;;;4.18;2.65;;;9.90;95.40;;;9.55;100.00;101607.28;5026831;28;20041;-75
2022/04/16 01:41:01;;;;;;;3.03;2.72;;;9.80;95.80;;;9.45;100.00;101611.66;5009970;28;20591;-75
2022/04/16 01:43:29;;;;;;;3.17;2.88;;;9.90;96.00;;;9.36;100.00;101614.25;5027712;28;20049;-79
2022/04/16 01:45:57;;;;;;;4.55;2.95;;;9.70;95.90;;;9.26;100.00;101621.25;5026984;28;20042;-77
2022/04/16 01:48:27;;;;;;;4.32;3.22;;;9.60;96.00;;;9.21;100.00;101607.25;5028189;28;20095;-76
2022/04/16 01:50:54;;;;;;;3.20;2.90;;;9.50;96.00;;;9.26;100.00;101612.53;5028258;28;20387;-76
2022/04/16 01:53:22;;;;;;;3.88;3.30;;;9.50;96.10;;;9.25;100.00;101610.78;5028043;28;20045;-76
2022/04/16 01:55:49;;;;;;;3.72;2.95;;;9.50;96.20;;;9.26;100.00;101609.91;5026358;28;20037;-76
2022/04/16 01:58:17;;;;;;;5.18;3.28;;;9.50;96.00;;;9.19;100.00;101606.38;5026646;28;20063;-78
2022/04/16 02:00:43;;;;;;;5.45;3.08;;;9.50;96.20;;;9.16;100.00;101603.75;5026247;28;20683;-76
2022/04/16 02:03:11;;;;;;;3.45;3.15;;;9.50;96.20;;;9.05;100.00;101601.97;5026663;28;20045;-76
2022/04/16 02:05:38;;;;;;;3.72;3.17;;;9.40;96.20;;;8.94;100.00;101606.31;5027008;28;20080;-76
2022/04/16 02:08:06;;;;;;;3.78;3.10;;;9.40;96.40;;;8.89;100.00;101608.91;5026639;28;20445;-76
2022/04/16 02:10:34;;;;;;;4.65;2.65;;;9.30;96.40;;;8.73;100.00;101602.75;5025971;28;20049;-76
2022/04/16 02:13:01;;;;;;;3.28;2.97;;;9.20;96.70;;;8.83;100.00;101598.41;5026929;28;20141;-77
2022/04/16 02:15:29;;;;;;;3.40;3.10;;;9.20;96.40;;;8.75;100.00;101603.66;5026659;28;20038;-76
2022/04/16 02:17:56;;;;;;;5.50;3.80;;;9.20;96.60;;;8.79;100.00;101597.53;5027988;28;20422;-76
2022/04/16 02:20:23;;;;;;;3.53;2.75;;;9.30;96.60;;;8.84;100.00;101610.66;5028162;28;20068;-78
2022/04/16 02:22:52;;;;;;;3.72;3.30;;;9.10;96.60;;;8.73;100.00;101608.00;5030788;28;20052;-79
2022/04/16 02:25:28;;;;;;;3.65;2.80;;;9.10;96.80;;;8.76;100.00;101609.78;5028490;28;20080;-77
2022/04/16 02:27:55;;;;;;;5.75;2.95;;;9.00;96.70;;;8.83;100.00;101598.41;5030767;28;20076;-76
2022/04/16 02:30:22;;;;;;;3.75;3.10;;;9.20;96.70;;;8.84;100.00;101601.94;5027520;28;20460;-76
2022/04/16 02:32:54;;;;;;;3.65;3.15;;;9.10;96.70;;;8.84;100.00;101604.56;5011577;28;20065;-78
2022/04/16 02:35:23;;;;;;;5.18;3.35;;;9.10;96.80;;;8.86;100.00;101600.19;5028798;28;20046;-78
2022/04/16 02:37:50;;;;;;;4.45;3.38;;;9.10;96.60;;;8.77;100.00;101599.28;5029123;28;20053;-77
2022/04/16 02:40:17;;;;;;;3.25;2.85;;;9.10;96.80;;;8.78;100.00;101603.66;5028807;28;20521;-77
2022/04/16 02:42:45;;;;;;;3.28;2.88;;;9.00;96.70;;;8.65;100.00;101602.75;5030329;28;20144;-78
2022/04/16 02:48:01;;;;;;;3.35;2.95;;;9.00;96.80;;;8.59;100.00;101618.47;5029481;28;20503;-78
2022/04/16 02:50:28;;;;;;;3.92;2.88;;;8.90;96.70;;;8.53;100.00;101618.41;5009542;28;20494;-76
2022/04/16 02:52:56;;;;;;;3.33;3.03;;;8.90;96.90;;;8.46;100.00;101608.75;5027596;28;20060;-77
2022/04/16 02:55:23;;;;;;;3.55;2.85;;;8.80;97.00;;;8.36;100.00;101613.94;5026649;28;20125;-75
2022/04/16 02:57:51;;;;;;;4.03;3.30;;;8.80;97.10;;;8.44;100.00;101613.13;5027113;28;20505;-75
2022/04/16 03:00:20;;;;;;;4.30;3.25;;;8.70;96.90;;;8.34;100.00;101605.19;5028216;28;20042;-76
2022/04/16 03:02:51;;;;;;;3.83;3.07;;;8.70;96.80;;;8.35;100.00;101613.91;5029415;28;20038;-79
2022/04/16 03:05:18;;;;;;;5.47;3.35;;;8.70;97.10;;;8.46;100.00;101608.75;5013039;28;20130;-75
2022/04/16 03:07:45;;;;;;;4.18;3.30;;;8.70;97.20;;;8.49;100.00;101611.38;5032724;28;20045;-75
2022/04/16 03:10:13;;;;;;;4.28;3.30;;;8.70;97.20;;;8.49;100.00;101608.75;5031425;28;20045;-76
2022/04/16 03:12:49;;;;;;;5.70;3.30;;;8.70;96.90;;;8.35;100.00;101604.31;5030840;28;20480;-78
2022/04/16 03:18:04;;;;;;;7.35;3.28;;;8.60;96.90;;;8.13;100.00;101616.44;5029839;28;20041;-77
2022/04/16 03:20:32;;;;;;;4.18;3.30;;;8.60;97.20;;;8.17;100.00;101622.56;5045102;28;20045;-75
2022/04/16 03:23:00;;;;;;;3.65;3.10;;;8.90;97.60;;;8.17;100.00;101615.56;5029370;28;20042;-76
2022/04/16 03:25:30;;;;;;;4.05;3.42;;;8.50;97.40;;;8.08;100.00;101615.53;5029472;28;20045;-76
2022/04/16 03:27:58;;;;;;;3.60;2.95;;;8.50;97.40;;;8.13;100.00;101626.91;5028957;28;20572;-76
2022/04/16 03:30:25;;;;;;;4.28;2.92;;;8.70;97.20;;;7.99;100.00;101621.59;5029883;28;20049;-76
2022/04/16 03:32:53;;;;;;;4.47;2.97;;;8.40;97.30;;;7.91;100.00;101629.41;5031734;28;20050;-77
2022/04/16 03:35:23;;;;;;;4.32;3.33;;;8.30;97.40;;;7.81;100.00;101630.19;5029865;28;20045;-76
2022/04/16 03:37:50;;;;;;;3.97;3.40;;;8.60;97.60;;;7.81;100.00;101632.81;5028965;28;20539;-76
2022/04/16 03:40:19;;;;;;;4.15;3.75;;;8.70;97.70;;;7.80;100.00;101623.19;5027936;28;20325;-75
2022/04/16 03:42:51;;;;;;;4.13;3.33;;;8.20;97.70;;;7.68;100.00;101620.47;5029593;28;20095;-76
2022/04/16 03:45:24;;;;;;;4.13;3.40;;;8.10;97.80;;;7.65;100.00;101616.97;5028414;28;20046;-76
2022/04/16 03:47:57;;;;;;;4.10;3.30;;;8.80;98.00;;;7.70;100.00;101622.25;5012531;28;20771;-76
2022/04/16 03:50:26;;;;;;;3.35;3.00;;;8.00;98.00;;;7.75;100.00;101627.53;5027804;28;20046;-76
2022/04/16 03:52:55;;;;;;;4.07;2.97;;;8.00;97.90;;;7.79;100.00;101629.31;5029060;28;20148;-76
2022/04/16 04:01:04;;;;;;;3.40;3.10;;;8.10;98.30;;;7.84;100.00;101638.06;5028540;28;20124;-77
2022/04/16 04:03:32;;;;;;;3.47;2.95;;;8.10;98.30;;;7.89;100.00;101633.75;5031733;28;20049;-76
2022/04/16 04:06:01;;;;;;;3.70;3.28;;;9.60;98.50;;;7.93;100.00;101627.66;5029010;28;20055;-76
2022/04/16 04:08:29;;;;;;;4.22;3.20;;;9.70;98.70;;;7.86;100.00;101631.09;5028790;28;20051;-76
2022/04/16 04:10:56;;;;;;;3.17;2.88;;;8.20;98.30;;;7.99;100.00;101637.31;5028184;28;20053;-75
2022/04/16 04:13:23;;;;;;;4.45;3.42;;;8.20;98.40;;;8.04;100.00;101639.94;5029487;28;20053;-76
2022/04/16 04:15:51;;;;;;;4.65;3.25;;;8.20;98.40;;;8.08;100.00;101637.38;5028100;28;20042;-77
2022/04/16 04:18:18;;;;;;;3.20;2.75;;;8.30;98.60;;;8.04;100.00;101647.81;5030385;28;20041;-79
2022/04/16 04:20:45;;;;;;;3.38;3.08;;;8.30;98.60;;;8.14;100.00;101641.78;5030543;28;20041;-78
2022/04/16 04:23:12;;;;;;;3.83;3.08;;;8.40;98.50;;;8.10;100.00;101637.38;5031639;28;20040;-79
2022/04/16 04:25:39;;;;;;;3.72;3.17;;;8.70;98.80;;;8.20;100.00;101633.97;5033030;28;20784;-79
2022/04/16 04:28:06;;;;;;;3.60;3.17;;;8.40;98.60;;;8.29;100.00;101638.38;5032329;28;20072;-76
2022/04/16 04:30:33;;;;;;;3.55;3.25;;;8.40;98.60;;;8.32;100.00;101638.41;5029188;28;20075;-78
2022/04/16 04:33:00;;;;;;;4.50;3.72;;;8.80;99.00;;;8.37;100.00;101633.19;5030112;28;20053;-76
2022/04/16 04:35:28;;;;;;;3.90;3.00;;;8.50;98.70;;;8.44;100.00;101650.69;5028070;28;20041;-77
2022/04/16 04:37:58;;;;;;;4.22;3.17;;;8.60;98.70;;;8.38;100.00;101648.06;5028311;28;20483;-76
2022/04/16 04:40:25;;;;;;;4.38;3.58;;;8.60;98.80;;;8.38;100.00;101654.16;5028040;28;20041;-77
2022/04/16 04:42:52;;;;;;;3.85;3.45;;;8.60;98.80;;;8.47;100.00;101650.72;5029825;28;20046;-77
2022/04/16 04:45:19;;;;;;;3.67;3.38;;;8.70;98.80;;;8.50;100.00;101644.66;5029820;28;20041;-76
2022/04/16 04:47:45;;;;;;;5.35;3.63;;;8.70;98.90;;;8.56;100.00;101649.91;5027937;28;20585;-76
2022/04/16 04:50:12;;;;;;;4.30;3.70;;;8.70;99.00;;;8.59;100.00;101654.31;5023610;28;20502;-76
2022/04/16 04:52:41;;;;;;;3.83;3.15;;;9.00;99.10;;;8.59;100.00;101654.31;5008207;28;20481;-76
2022/04/16 04:55:12;;;;;;;5.90;3.58;;;8.80;99.00;;;8.69;100.00;101653.50;5024286;28;20049;-76
2022/04/16 04:57:40;;;;;;;3.88;3.47;;;8.90;99.00;;;8.69;100.00;101653.50;5025187;28;20034;-76
2022/04/16 05:00:10;;;;;;;4.15;3.75;;;8.90;98.90;;;8.73;100.00;101655.25;5024261;28;20050;-75
2022/04/16 05:02:47;;;;;;;4.43;3.83;;;8.90;98.80;;;8.78;100.00;101656.13;5027121;28;20052;-76
2022/04/16 05:05:16;;;;;;;3.70;2.85;;;9.00;99.10;;;8.78;100.00;101643.00;5027990;28;20046;-76
2022/04/16 05:07:43;;;;;;;3.33;2.97;;;9.10;98.80;;;8.85;100.00;101654.41;5044439;28;20498;-75
2022/04/16 05:10:10;;;;;;;3.53;3.08;;;9.00;98.70;;;8.88;100.00;101661.44;5027316;28;20068;-77
2022/04/16 05:12:37;;;;;;;7.07;3.53;;;9.10;98.70;;;8.92;100.00;101677.22;5028032;28;20049;-76
2022/04/16 05:15:05;;;;;;;4.50;3.33;;;9.10;98.70;;;8.97;100.00;101669.31;5044312;28;20061;-76
2022/04/16 05:17:33;;;;;;;4.22;3.45;;;9.10;98.80;;;9.02;100.00;101664.09;5026903;28;20091;-78
2022/04/16 05:20:03;;;;;;;4.57;3.42;;;9.60;98.80;;;9.05;100.00;101666.72;5010604;28;20048;-77
2022/04/16 05:22:30;;;;;;;7.07;3.58;;;10.50;99.10;;;9.13;100.00;101667.63;5027823;28;20045;-76
2022/04/16 05:24:58;;;;;;;4.82;3.35;;;9.30;98.70;;;9.19;100.00;101672.91;5028547;28;20631;-76
2022/04/16 05:27:25;;;;;;;7.13;3.70;;;9.30;98.60;;;9.19;100.00;101672.91;5027834;28;20061;-79
2022/04/16 05:30:06;;;;;;;4.20;3.20;;;9.40;98.80;;;9.21;100.00;101675.53;5036342;28;20048;-80
2022/04/16 05:32:42;;;;;;;4.43;3.90;;;9.40;98.50;;;9.35;100.00;101683.44;5051266;28;20049;-76
2022/04/16 05:35:10;;;;;;;4.45;3.40;;;9.50;98.50;;;9.44;100.00;101677.31;5031466;28;20053;-78
2022/04/16 05:37:38;;;;;;;3.70;3.40;;;9.50;98.60;;;9.44;100.00;101678.22;5030119;28;20056;-76
2022/04/16 05:40:06;;;;;;;5.07;3.97;;;9.60;98.60;;;9.51;100.00;101668.59;5030811;28;20425;-76
2022/04/16 05:42:42;;;;;;;5.47;3.85;;;9.60;98.70;;;9.63;100.00;101684.38;5028444;28;20050;-76
2022/04/16 05:45:14;;;;;;;3.85;3.38;;;9.70;98.60;;;9.60;100.00;101680.88;5028868;28;20128;-78
2022/04/16 05:47:43;;;;;;;5.40;3.75;;;9.70;98.90;;;9.71;100.00;101681.75;5028837;28;20563;-76
2022/04/16 05:50:11;;;;;;;4.03;3.63;;;9.80;98.60;;;9.77;100.00;101688.78;5026634;28;20053;-77
2022/04/16 05:52:39;;;;;;;4.57;3.92;;;9.80;98.50;;;9.81;100.00;101682.63;5026550;28;20041;-76
2022/04/16 05:55:07;;;;;;;4.47;3.78;;;9.90;98.50;;;9.88;100.00;101688.78;5028283;28;20042;-76
2022/04/16 05:57:34;;;;;;;3.83;3.15;;;10.00;98.60;;;9.83;100.00;101679.97;5011445;28;20427;-76
2022/04/16 06:00:03;;;;;;;4.40;3.47;;;11.00;98.90;;;9.97;100.00;101687.88;5026909;28;20453;-76
2022/04/16 06:02:41;;;;;;;4.57;4.10;;;10.10;98.60;;;10.04;100.00;101694.88;5028644;28;20127;-78
2022/04/16 06:05:08;;;;;;;5.03;4.10;;;10.10;98.60;;;10.08;100.00;101696.66;5028275;28;20405;-78
2022/04/16 06:07:35;;;;;;;4.18;3.78;;;10.20;98.70;;;10.16;100.00;101694.88;5028161;28;20056;-76
2022/04/16 06:10:06;;;;;;;4.47;3.72;;;10.20;98.60;;;10.24;100.00;101696.66;5034010;28;20053;-76
2022/04/16 06:12:36;;;;;;;8.00;4.22;;;10.30;98.60;;;10.32;100.00;101694.84;5030603;28;20524;-78
2022/04/16 06:15:03;;;;;;;5.85;3.67;;;9.00;98.30;;;10.44;100.00;101701.88;5012828;28;20034;-81
2022/04/16 06:17:30;;;;;;;5.03;4.53;;;10.40;98.50;;;10.55;100.00;101707.16;5050865;28;20049;-77
2022/04/16 06:19:57;;;;;;;5.57;4.32;;;10.50;98.50;;;10.65;100.00;101703.59;5055896;28;20050;-78
2022/04/16 06:22:24;;;;;;;5.38;4.43;;;10.60;98.50;;;10.73;100.00;101714.09;5045269;28;20034;-78
2022/04/16 06:24:51;;;;;;;5.32;4.43;;;10.80;98.50;;;10.83;100.00;101707.94;5012903;28;20056;-77
2022/04/16 06:27:18;;;;;;;5.18;3.95;;;10.80;98.30;;;10.90;100.00;101716.69;5044800;28;20056;-77
2022/04/16 06:29:45;;;;;;;6.72;4.50;;;10.90;98.40;;;10.96;100.00;101715.78;5028571;28;20042;-78
2022/04/16 06:32:13;;;;;;;7.68;4.70;;;11.90;98.60;;;11.05;100.00;101719.25;5044367;28;20121;-78
2022/04/16 06:34:40;;;;;;;5.55;4.05;;;11.00;98.20;;;11.10;100.00;101723.63;5045055;28;20058;-78
2022/04/16 06:37:07;;;;;;;4.47;3.70;;;11.10;98.20;;;11.26;100.00;101725.28;5044618;28;20042;-76
2022/04/16 06:39:34;;;;;;;6.35;3.83;;;11.20;98.10;;;11.21;100.00;101720.03;5007871;28;20088;-76
2022/04/16 06:42:01;;;;;;;6.20;4.68;;;11.20;98.20;;;11.31;100.00;101726.13;5009133;28;20061;-75
2022/04/16 06:44:29;;;;;;;4.78;4.25;;;11.50;98.10;;;11.33;100.00;101724.41;5043690;28;20103;-76
2022/04/16 06:46:56;;;;;;;4.85;4.20;;;11.50;98.10;;;11.41;100.00;101729.63;5011518;28;20149;-76
2022/04/16 06:49:25;;;;;;;4.47;3.58;;;11.40;98.20;;;11.45;100.00;101727.81;5015730;28;20053;-73
2022/04/16 06:51:52;;;;;;;5.10;4.13;;;11.50;98.30;;;11.56;100.00;101717.25;5034255;28;20052;-78
2022/04/16 06:54:19;;;;;;;5.70;4.30;;;12.00;98.30;;;11.70;100.00;101711.84;5034693;28;20053;-78
2022/04/16 06:56:46;;;;;;;5.18;3.97;;;11.60;98.10;;;11.83;100.00;101724.06;5034317;28;20260;-78
2022/04/16 06:59:14;;;;;;;5.38;4.35;;;13.70;98.80;;;11.88;100.00;101732.81;5033719;28;20033;-78
2022/04/16 07:01:41;;;;;;;5.68;3.70;;;11.80;98.10;;;12.04;100.00;101719.53;5033540;28;20372;-78
2022/04/16 07:04:08;;;;;;;4.28;3.65;;;11.90;98.10;;;12.13;100.00;101722.09;5025720;28;20041;-79
2022/04/16 07:06:35;;;;;;;5.38;4.07;;;12.00;98.00;;;12.29;100.00;101729.88;5032320;28;20049;-80
2022/04/16 07:09:02;;;;;;;5.53;4.20;;;12.70;98.10;;;12.41;100.00;101719.22;5030776;28;20045;-78
2022/04/16 07:11:29;;;;;;;6.72;4.22;;;12.30;97.70;;;12.52;100.00;101718.19;5039269;28;20498;-77
2022/04/16 07:13:56;;;;;;;3.85;3.42;;;12.40;97.40;;;12.61;100.00;101718.13;5038933;28;20045;-78
2022/04/16 07:16:23;;;;;;;4.18;3.78;;;12.50;97.00;;;12.76;100.00;101723.22;5059949;28;20057;-78
2022/04/16 07:18:50;;;;;;;5.57;3.97;;;12.60;97.00;;;12.81;100.00;101730.22;5035817;28;20064;-77
2022/04/16 07:21:17;;;;;;;5.18;3.67;;;12.70;96.60;;;12.90;100.00;101719.56;5035024;28;20081;-78
2022/04/16 07:23:44;;;;;;;4.10;3.70;;;12.90;96.60;;;12.98;100.00;101722.09;5034776;28;20051;-78
2022/04/16 07:26:11;;;;;;;4.57;4.03;;;13.10;96.50;;;13.09;100.00;101730.75;5049312;28;20061;-78
2022/04/16 07:28:38;;;;;;;5.40;4.28;;;13.00;96.20;;;13.21;100.00;101731.50;5014630;28;20058;-78
2022/04/16 07:31:05;;;;;;;5.13;3.95;;;13.10;96.30;;;13.30;100.00;101728.75;4998420;28;20485;-78
2022/04/16 07:33:32;;;;;;;5.03;4.45;;;13.20;96.10;;;13.37;100.00;101727.75;5017350;28;20048;-78
2022/04/16 07:35:59;;;;;;;4.07;3.63;;;13.30;95.90;;;13.34;100.00;101738.38;5015326;28;20038;-78
2022/04/16 07:38:26;;;;;;;4.30;3.75;;;13.40;95.80;;;13.41;100.00;101733.88;5042914;28;20109;-79
2022/04/16 07:40:54;;;;;;;4.65;3.78;;;13.40;95.60;;;13.46;100.00;101732.94;5002026;28;20522;-78
2022/04/16 07:43:21;;;;;;;4.93;3.78;;;13.50;95.60;;;13.47;100.00;101739.97;5052181;28;20085;-79
2022/04/16 07:45:48;;;;;;;4.55;3.45;;;13.80;95.10;;;13.54;100.00;101748.69;5034416;28;20037;-78
2022/04/16 07:48:15;;;;;;;3.85;3.30;;;13.60;94.70;;;13.59;95.24;101746.84;5035341;28;20105;-79
2022/04/16 07:50:42;;;;;;;4.47;3.05;;;13.90;94.00;;;13.56;92.24;101753.94;5051262;28;20179;-79
2022/04/16 07:53:09;;;;;;;3.60;2.95;;;13.60;93.60;;;13.66;90.75;101752.03;5018310;28;20049;-79
2022/04/16 07:55:36;;;;;;;5.07;3.70;;;13.60;93.50;;;13.71;91.44;101748.44;5018746;28;20063;-78
2022/04/16 07:58:03;;;;;;;5.45;3.53;;;13.70;93.60;;;13.76;90.89;101753.66;5036919;28;20093;-78
2022/04/16 08:00:30;;;;;;;4.78;3.55;;;13.70;93.50;;;13.77;89.49;101758.06;5035314;28;20582;-80
2022/04/16 08:02:57;;;;;;;5.15;3.22;;;14.00;93.30;;;13.74;89.65;101752.81;5019695;28;20045;-80
2022/04/16 08:05:24;;;;;;;3.97;3.42;;;13.80;93.20;;;13.88;87.23;101752.59;5034876;28;20040;-80
2022/04/16 08:07:55;;;;;;;3.45;2.85;;;13.80;93.00;;;13.95;84.80;101759.53;5018135;28;20042;-80
2022/04/16 08:10:22;;;;;;;3.72;3.08;;;13.90;92.90;;;14.04;84.67;101759.38;5037070;28;20050;-82
2022/04/16 08:12:50;;;;;;;4.55;3.20;;;14.00;92.90;;;14.02;85.27;101762.97;5043230;28;20061;-82
2022/04/16 08:15:18;;;;;;;3.53;2.58;;;14.00;92.80;;;14.13;82.27;101753.09;5024111;28;20046;-80
2022/04/16 08:17:45;;;;;;;4.18;2.80;;;14.00;92.70;;;14.32;77.78;101766.88;5035110;28;20088;-80
2022/04/16 08:20:12;;;;;;;3.47;3.15;;;14.20;92.10;;;14.35;75.91;101773.00;5017510;28;20053;-82
2022/04/16 08:22:46;;;;;;;4.20;3.17;;;14.30;91.80;;;14.38;75.46;101765.03;5017784;28;20065;-84
2022/04/16 08:27:52;;;;;;;3.25;2.95;;;14.50;91.40;;;14.36;73.30;101770.34;5020396;28;20042;-85
2022/04/16 08:30:19;;;;;;;3.30;2.78;;;14.40;91.20;;;14.29;71.74;101756.34;5037540;28;20076;-83
2022/04/16 08:32:47;;;;;;;3.67;3.03;;;14.50;90.90;;;14.21;72.68;101765.31;5019467;28;20061;-83
2022/04/16 08:35:18;;;;;;;3.47;2.95;;;14.40;90.80;;;14.38;74.36;101767.69;5036699;28;20152;-82
2022/04/16 08:37:51;;;;;;;3.70;3.22;;;14.40;91.00;;;14.35;73.53;101760.66;5019395;28;20042;-82
2022/04/16 08:40:30;;;;;;;;;;;;;;;;;;;;;
2022/04/16 08:43:01;;;;;;;4.95;3.63;;;16.10;91.20;;;14.31;74.89;101751.88;5031081;28;20042;-83
2022/04/16 08:45:33;;;;;;;4.68;3.30;;;14.40;91.10;;;14.41;74.16;101765.81;5031983;28;20462;-82
2022/04/16 08:48:04;;;;;;;4.00;3.40;;;14.40;91.10;;;14.78;73.57;101766.97;5028302;28;20126;-83
2022/04/16 08:50:36;;;;;;;3.30;2.80;;;14.60;91.20;;;15.06;70.97;101760.22;5015495;28;20054;-83
2022/04/16 08:53:05;;;;;;;4.55;3.22;;;14.70;91.20;;;14.99;64.91;101776.25;5016618;28;20045;-82
2022/04/16 08:55:32;;;;;;;3.60;2.78;;;15.00;90.10;;;15.18;64.33;101775.88;5029856;28;20502;-85
2022/04/16 08:58:00;;;;;;;3.78;2.80;;;15.10;90.00;;;15.25;62.40;101788.13;5040163;28;20056;-83
2022/04/16 09:00:28;;;;;;;6.15;3.53;;;15.10;89.80;;;15.19;60.42;101779.41;5000482;28;20115;-84
2022/04/16 09:02:58;;;;;;;4.40;3.10;;;15.30;88.20;;;15.20;58.25;101781.16;5044320;28;20103;-83
2022/04/16 09:05:27;;;;;;;;;;;15.20;86.80;;;15.28;58.90;101782.75;5029408;28;20060;-80
2022/04/16 09:07:59;;;;;;;3.85;3.10;;;14.80;87.00;;;15.20;58.40;101778.50;5023825;28;19925;-82
2022/04/16 09:10:29;;;;;;;3.88;2.88;;;15.30;86.70;;;15.27;57.07;101785.41;5014527;28;20049;-82
2022/04/16 09:13:02;;;;;;;3.75;3.35;;;15.30;85.90;;;15.24;55.41;101775.78;5031697;28;20038;-82
2022/04/16 09:15:31;;;;;;;3.17;2.55;;;15.60;85.20;;;15.27;55.54;101781.00;5031253;28;20115;-81
2022/04/16 09:18:05;;;;;;;3.58;2.92;;;15.90;85.40;;;15.33;55.25;101790.59;5029589;28;20034;-81
2022/04/16 09:20:35;;;;;;;3.30;2.58;;;15.20;84.60;;;15.28;55.25;101793.34;5029952;28;20045;-79
2022/04/16 09:23:18;;;;;;;3.22;2.92;;;15.20;84.30;;;15.25;54.98;101787.22;5030937;28;20140;-80
2022/04/16 09:25:47;;;;;;;4.03;2.90;;;15.20;84.00;;;15.24;55.71;101778.41;5032039;28;20087;-80
2022/04/16 09:28:20;;;;;;;3.60;2.97;;;15.20;84.50;;;15.22;56.98;101788.19;5034284;28;20148;-81
2022/04/16 09:30:56;;;;;;;3.88;3.30;;;15.20;84.70;;;15.20;57.39;101784.66;5020930;28;20075;-81
2022/04/16 09:33:23;;;;;;;4.90;3.25;;;15.20;84.70;;;15.19;58.49;101782.06;5033275;28;20061;-78
2022/04/16 09:35:57;;;;;;;3.58;3.00;;;15.20;85.20;;;15.34;59.08;101794.13;5030187;28;20053;-79
2022/04/16 09:38:30;;;;;;;4.20;3.47;;;15.20;85.40;;;15.31;57.72;101782.69;5013189;28;20045;-78
2022/04/16 09:41:05;;;;;;;7.22;3.10;;;15.30;84.90;;;15.51;56.96;101780.50;5028214;28;20050;-78
2022/04/16 09:43:37;;;;;;;3.10;2.75;;;15.30;84.80;;;15.67;54.22;101784.56;5028665;28;20052;-80
2022/04/16 09:46:13;;;;;;;7.60;2.58;;;15.40;83.60;;;15.76;53.10;101794.09;5030727;28;20654;-80
2022/04/16 09:48:41;;;;;;;4.15;3.05;;;15.50;82.70;;;15.84;53.75;101789.50;5033018;28;20046;-81
2022/04/16 09:51:09;;;;;;;5.07;3.10;;;15.90;83.30;;;16.01;55.16;101788.25;5015029;28;20414;-82
2022/04/16 09:53:37;;;;;;;3.97;2.58;;;15.70;84.10;;;16.12;52.63;101785.31;4998030;28;20044;-80
2022/04/16 09:56:10;;;;;;;2.90;2.55;;;15.90;82.40;;;16.23;52.14;101788.56;5013212;28;20045;-80
2022/04/16 09:58:42;;;;;;;3.03;2.55;;;16.00;81.80;;;16.42;52.33;101780.16;5029664;28;20046;-81
2022/04/16 10:01:10;;;;;;;4.38;2.85;;;16.10;82.30;;;16.29;51.38;101793.72;5029112;28;20045;-79
2022/04/16 10:03:39;;;;;;;3.35;2.80;;;16.20;81.30;;;16.37;50.60;101784.69;5014595;28;20052;-80
2022/04/16 10:06:08;;;;;;;3.90;3.50;;;16.20;80.40;;;16.29;50.34;101793.72;5016185;28;20061;-80
2022/04/16 10:08:37;;;;;;;4.28;3.28;;;16.20;80.20;;;16.37;51.16;101787.34;5029231;28;20037;-80
2022/04/16 10:11:05;;;;;;;4.38;3.10;;;16.20;80.70;;;16.39;50.70;101794.38;5039439;28;20136;-80
2022/04/16 10:13:40;;;;;;;3.78;3.17;;;16.30;80.30;;;16.57;50.68;101801.00;5028095;28;20072;-80
2022/04/16 10:16:34;;;;;;;4.00;3.15;;;16.70;80.50;;;16.68;49.82;101802.47;5008836;28;20497;-79
2022/04/16 10:19:01;;;;;;;3.17;2.88;;;16.40;79.60;;;16.80;49.28;101803.94;5014016;28;20485;-80
2022/04/16 10:21:33;;;;;;;3.20;2.83;;;16.60;79.20;;;16.86;48.50;101788.72;5016550;28;20037;-79
2022/04/16 10:24:01;;;;;;;4.25;3.25;;;16.70;78.40;;;17.03;47.20;101795.38;5015970;28;20069;-79
2022/04/16 10:26:38;;;;;;;2.85;2.50;;;16.80;77.10;;;17.00;46.87;101798.97;5032194;28;20034;-79
2022/04/16 10:29:10;;;;;;;3.13;2.42;;;16.80;76.50;;;16.91;46.66;101798.34;5016368;28;20152;-80
2022/04/16 10:31:49;;;;;;;2.90;2.60;;;16.90;75.70;;;16.92;46.85;101797.41;4999379;28;20045;-80
2022/04/16 10:34:20;;;;;;;2.97;2.60;;;17.90;76.30;;;16.87;46.29;101792.22;5015289;28;20156;-82
2022/04/16 10:36:52;;;;;;;2.85;2.20;;;16.90;75.30;;;16.80;45.89;101791.50;5032490;28;20651;-80